Time;durP1;ratioP1;P1;durP2;ratioP2;P2;SDS_P1;SDS_P2;PMS_P1;PMS_P2;Temp;Humidity;BMP_temperature;BMP_pressure;BME280_temperature;BME280_humidity;BME280_pressure;Samples;Min_cycle;Max_cycle;Signal;HPM_P1;HPM_P2
2021/04/17 00:00:48;;;;;;;4.28;1.55;;;;;;;21.12;nan;103150.91;5073460;28;20100;-58
2021/04/17 00:03:13;;;;;;;3.60;1.38;;;;;;;21.15;nan;103156.09;5073229;28;20399;-59
2021/04/17 00:05:38;;;;;;;3.90;1.73;;;;;;;21.10;nan;103142.81;5072368;28;20024;-59
2021/04/17 00:08:04;;;;;;;4.55;2.25;;;;;;;21.14;nan;103143.41;5073340;28;20035;-58
2021/04/17 00:10:29;;;;;;;3.25;1.38;;;;;;;21.16;nan;103145.00;5071781;28;20036;-58
2021/04/17 00:12:55;;;;;;;3.30;1.50;;;;;;;20.84;nan;103152.44;5073363;28;20025;-59
2021/04/17 00:15:20;;;;;;;4.57;1.58;;;;;;;20.43;nan;103148.63;5073108;28;20024;-59
2021/04/17 00:17:45;;;;;;;4.72;1.80;;;;;;;20.32;nan;103148.63;5073291;28;20024;-58
2021/04/17 00:20:11;;;;;;;2.53;1.27;;;;;;;20.13;nan;103139.25;5073022;28;20038;-58
2021/04/17 00:22:36;;;;;;;3.67;1.73;;;;;;;20.12;nan;103147.59;5073234;28;20116;-58
2021/04/17 00:25:02;;;;;;;2.85;1.30;;;;;;;19.95;nan;103145.38;5073002;28;20107;-58
2021/04/17 00:27:27;;;;;;;3.95;1.45;;;;;;;19.93;nan;103136.44;5069525;28;20048;-58
2021/04/17 00:29:53;;;;;;;3.95;1.77;;;;;;;19.84;nan;103135.38;5053082;28;20219;-58
2021/04/17 00:32:18;;;;;;;4.35;1.67;;;;;;;19.84;nan;103140.81;5052783;28;20032;-58
2021/04/17 00:34:43;;;;;;;2.03;1.13;;;;;;;19.83;nan;103133.63;5052829;28;20028;-58
2021/04/17 00:37:09;;;;;;;4.38;1.80;;;;;;;19.81;nan;103125.53;5067881;28;20058;-58
2021/04/17 00:39:35;;;;;;;6.60;2.33;;;;;;;19.68;nan;103126.69;5072853;28;20031;-58
2021/04/17 00:42:00;;;;;;;3.92;1.83;;;;;;;19.75;nan;103126.06;5072704;28;20033;-58
2021/04/17 00:44:25;;;;;;;5.47;2.03;;;;;;;19.69;nan;103126.56;5072482;28;20503;-58
2021/04/17 00:46:51;;;;;;;5.50;1.50;;;;;;;19.78;nan;103131.25;5072426;28;20025;-58
2021/04/17 00:49:16;;;;;;;2.97;1.48;;;;;;;19.72;nan;103126.31;5072425;28;20515;-59
2021/04/17 00:51:42;;;;;;;3.72;1.48;;;;;;;19.66;nan;103120.50;5072199;28;20536;-58
2021/04/17 00:54:07;;;;;;;5.90;2.30;;;;;;;19.73;nan;103122.59;5072523;28;20020;-58
2021/04/17 00:56:33;;;;;;;3.00;1.95;;;;;;;19.58;nan;103112.91;5072299;28;20044;-58
2021/04/17 00:58:58;;;;;;;2.90;1.55;;;;;;;19.67;nan;103122.22;5072711;28;20035;-58
2021/04/17 01:01:24;;;;;;;5.35;1.70;;;;;;;19.62;nan;103119.88;5065886;28;20029;-58
2021/04/17 01:04:10;;;;;;;3.17;1.35;;;;;;;19.64;nan;103117.00;5052579;28;20028;-58
2021/04/17 01:07:02;;;;;;;3.30;1.52;;;;;;;19.63;nan;103115.28;5053835;28;20090;-58
2021/04/17 01:09:42;;;;;;;4.30;1.80;;;;;;;19.57;nan;103111.19;5052684;28;20468;-59
2021/04/17 01:12:15;;;;;;;3.08;1.48;;;;;;;19.67;nan;103117.66;5052337;28;20056;-58
2021/04/17 01:14:43;;;;;;;3.45;1.83;;;;;;;19.66;nan;103120.50;5052303;28;20283;-58
2021/04/17 01:17:11;;;;;;;4.47;1.80;;;;;;;19.67;nan;103119.50;5052278;28;20116;-58
2021/04/17 01:19:39;;;;;;;5.00;2.42;;;;;;;19.70;nan;103113.78;5052369;28;20024;-58
2021/04/17 01:22:06;;;;;;;2.53;1.63;;;;;;;19.82;nan;103116.38;5052238;28;20469;-59
2021/04/17 01:24:35;;;;;;;3.42;1.67;;;;;;;20.23;nan;103109.31;5052082;28;20072;-58
2021/04/17 01:27:01;;;;;;;3.05;1.50;;;;;;;20.32;nan;103115.84;5052269;28;20047;-58
2021/04/17 01:29:27;;;;;;;2.97;1.48;;;;;;;20.62;nan;103110.53;5052088;28;20029;-58
2021/04/17 01:31:53;;;;;;;4.07;1.50;;;;;;;20.69;nan;103108.16;5052330;28;20025;-58
2021/04/17 01:34:19;;;;;;;3.08;1.55;;;;;;;20.64;nan;103104.94;5051983;28;20048;-59
2021/04/17 01:36:45;;;;;;;6.45;1.80;;;;;;;20.73;nan;103107.75;5053380;28;20070;-57
2021/04/17 01:39:16;;;;;;;3.03;1.63;;;;;;;20.76;nan;103108.50;5052088;28;20037;-58
2021/04/17 01:41:50;;;;;;;3.15;1.40;;;;;;;20.97;nan;103101.13;5052155;28;20354;-58
2021/04/17 01:44:20;;;;;;;3.42;1.90;;;;;;;21.07;nan;103106.69;5051951;28;20555;-58
2021/04/17 01:46:49;;;;;;;2.35;1.23;;;;;;;21.00;nan;103109.09;5051991;28;20495;-58
2021/04/17 01:49:15;;;;;;;4.60;1.80;;;;;;;21.08;nan;103114.75;5051940;28;20027;-58
2021/04/17 01:51:42;;;;;;;3.00;1.73;;;;;;;21.04;nan;103105.09;5052146;28;20460;-59
2021/04/17 01:54:17;;;;;;;3.85;1.38;;;;;;;21.14;nan;103108.72;5052026;28;20025;-58
2021/04/17 01:56:44;;;;;;;4.93;1.77;;;;;;;21.14;nan;103111.47;5051716;28;20130;-58
2021/04/17 01:59:12;;;;;;;3.58;1.67;;;;;;;21.05;nan;103116.91;5051860;28;20032;-58
2021/04/17 02:01:37;;;;;;;3.85;2.28;;;;;;;21.09;nan;103107.41;5053160;28;20021;-59
2021/04/17 02:04:03;;;;;;;3.58;1.65;;;;;;;21.07;nan;103115.75;5055806;28;20357;-58
2021/04/17 02:06:28;;;;;;;2.92;1.45;;;;;;;21.06;nan;103113.16;5069114;28;20020;-58
2021/04/17 02:08:53;;;;;;;4.32;1.90;;;;;;;21.03;nan;103108.81;5075616;28;20035;-58
2021/04/17 02:11:19;;;;;;;4.07;1.60;;;;;;;21.07;nan;103098.47;5075459;28;20062;-59
2021/04/17 02:13:44;;;;;;;3.13;1.58;;;;;;;21.02;nan;103107.97;5075679;28;20024;-58
2021/04/17 02:16:16;;;;;;;4.20;2.00;;;;;;;20.99;nan;103113.66;5075477;28;20021;-58
2021/04/17 02:18:57;;;;;;;3.42;1.50;;;;;;;20.97;nan;103109.34;5075482;28;20413;-58
2021/04/17 02:21:37;;;;;;;4.90;1.80;;;;;;;20.94;nan;103105.00;5075273;28;20035;-58
2021/04/17 02:24:04;;;;;;;3.30;1.60;;;;;;;20.93;nan;103096.94;5063829;28;20380;-58
2021/04/17 02:26:30;;;;;;;3.88;1.83;;;;;;;20.98;nan;103102.88;5055004;28;20036;-58
2021/04/17 02:28:56;;;;;;;4.22;1.63;;;;;;;20.94;nan;103098.69;5055332;28;20028;-58
2021/04/17 02:31:23;;;;;;;3.00;1.50;;;;;;;20.96;nan;103096.66;5055107;28;20029;-58
2021/04/17 02:33:49;;;;;;;4.13;1.52;;;;;;;21.14;nan;103100.53;5055301;28;20128;-58
2021/04/17 02:36:14;;;;;;;3.17;1.42;;;;;;;20.96;nan;103107.59;5066497;28;20481;-59
2021/04/17 02:38:39;;;;;;;4.03;1.77;;;;;;;20.94;nan;103104.16;5073741;28;20680;-58
2021/04/17 02:41:05;;;;;;;5.30;1.83;;;;;;;21.00;nan;103101.75;5075052;28;20031;-58
2021/04/17 02:43:30;;;;;;;2.80;1.30;;;;;;;20.97;nan;103103.88;5073609;28;20050;-58
2021/04/17 02:45:56;;;;;;;3.33;1.33;;;;;;;20.99;nan;103101.88;5075101;28;20036;-57
2021/04/17 02:48:21;;;;;;;5.00;1.90;;;;;;;21.05;nan;103101.34;5074648;28;20411;-58
2021/04/17 02:50:46;;;;;;;3.38;1.58;;;;;;;20.57;nan;103101.88;5074728;28;20475;-58
2021/04/17 02:53:11;;;;;;;5.13;1.98;;;;;;;20.30;nan;103104.19;5074614;28;20040;-58
2021/04/17 02:55:37;;;;;;;2.42;1.67;;;;;;;20.06;nan;103097.09;5074612;28;20052;-58
2021/04/17 02:58:02;;;;;;;4.18;1.70;;;;;;;19.89;nan;103089.44;5074679;28;20020;-58
2021/04/17 03:00:28;;;;;;;3.65;2.15;;;;;;;19.88;nan;103087.69;5074396;28;20024;-58
2021/04/17 03:02:53;;;;;;;3.58;1.55;;;;;;;19.83;nan;103089.97;5074613;28;20100;-58
2021/04/17 03:05:19;;;;;;;2.88;1.40;;;;;;;19.71;nan;103096.41;5074159;28;20119;-58
2021/04/17 03:07:45;;;;;;;4.35;1.83;;;;;;;19.71;nan;103088.22;5065530;28;20025;-58
2021/04/17 03:10:11;;;;;;;3.20;1.42;;;;;;;19.65;nan;103089.63;5053412;28;20029;-59
2021/04/17 03:12:37;;;;;;;4.88;1.77;;;;;;;19.72;nan;103098.16;5054006;28;20021;-58
2021/04/17 03:15:05;;;;;;;4.97;1.75;;;;;;;19.59;nan;103097.41;5052942;28;20355;-58
2021/04/17 03:17:30;;;;;;;4.28;1.58;;;;;;;19.61;nan;103098.16;5054360;28;20051;-58
2021/04/17 03:19:55;;;;;;;3.80;1.50;;;;;;;19.63;nan;103086.13;5053147;28;20104;-58
2021/04/17 03:22:21;;;;;;;3.72;2.03;;;;;;;19.59;nan;103092.81;5054079;28;20499;-58
2021/04/17 03:24:46;;;;;;;3.65;1.55;;;;;;;19.57;nan;103093.94;5054242;28;20060;-58
2021/04/17 03:27:11;;;;;;;4.25;1.40;;;;;;;19.63;nan;103091.56;5054037;28;20468;-58
2021/04/17 03:29:37;;;;;;;4.28;1.40;;;;;;;19.54;nan;103095.06;5054271;28;20095;-58
2021/04/17 03:32:02;;;;;;;4.03;1.73;;;;;;;19.55;nan;103090.47;5054143;28;20487;-57
2021/04/17 03:34:28;;;;;;;3.35;1.77;;;;;;;19.45;nan;103088.47;5054107;28;20036;-58
2021/04/17 03:36:55;;;;;;;3.17;1.58;;;;;;;19.53;nan;103099.63;5073018;28;20066;-58
2021/04/17 03:39:20;;;;;;;3.97;1.08;;;;;;;19.54;nan;103100.53;5073824;28;20025;-58
2021/04/17 03:41:46;;;;;;;4.60;1.88;;;;;;;19.48;nan;103101.88;5073881;28;20025;-58
2021/04/17 03:44:11;;;;;;;5.72;1.70;;;;;;;19.47;nan;103105.56;5073803;28;20028;-58
2021/04/17 03:46:37;;;;;;;5.47;1.77;;;;;;;19.50;nan;103104.47;5073669;28;20360;-58
2021/04/17 03:49:02;;;;;;;4.82;1.70;;;;;;;19.43;nan;103095.91;5073797;28;20029;-58
2021/04/17 03:51:28;;;;;;;4.07;1.73;;;;;;;19.44;nan;103102.22;5073583;28;20033;-58
2021/04/17 03:53:53;;;;;;;2.63;1.10;;;;;;;19.35;nan;103101.13;5073825;28;20062;-58
2021/04/17 03:56:19;;;;;;;3.58;1.50;;;;;;;19.33;nan;103097.66;5073141;28;20046;-58
2021/04/17 03:58:44;;;;;;;5.30;1.73;;;;;;;19.64;nan;103100.63;5073531;28;20032;-58
2021/04/17 04:01:10;;;;;;;2.47;1.50;;;;;;;19.99;nan;103095.88;5073148;28;20024;-58
2021/04/17 04:03:35;;;;;;;3.10;1.55;;;;;;;21.43;nan;103100.69;5053451;28;20039;-58
2021/04/17 04:06:00;;;;;;;2.95;1.95;;;;;;;21.93;nan;103095.22;5067413;28;20035;-58
2021/04/17 04:08:26;;;;;;;3.45;1.42;;;;;;;22.21;nan;103097.19;5073112;28;20074;-59
2021/04/17 04:10:51;;;;;;;3.50;1.30;;;;;;;22.52;nan;103094.31;5072137;28;20028;-58
2021/04/17 04:13:16;;;;;;;2.53;1.20;;;;;;;22.69;nan;103087.22;5071801;28;20027;-58
2021/04/17 04:15:42;;;;;;;4.50;1.70;;;;;;;22.68;nan;103094.59;5073386;28;20086;-58
2021/04/17 04:18:07;;;;;;;3.65;1.73;;;;;;;22.42;nan;103110.75;5073134;28;20036;-58
2021/04/17 04:20:32;;;;;;;3.78;1.35;;;;;;;22.22;nan;103098.06;5072993;28;20027;-58
2021/04/17 04:23:00;;;;;;;3.72;1.67;;;;;;;22.16;nan;103093.13;5073170;28;20071;-58
2021/04/17 04:25:25;;;;;;;4.47;2.10;;;;;;;22.08;nan;103095.72;5072054;28;20062;-58
2021/04/17 04:27:50;;;;;;;3.53;1.98;;;;;;;21.96;nan;103096.81;5065352;28;20020;-58
2021/04/17 04:30:16;;;;;;;3.15;1.58;;;;;;;21.96;nan;103096.81;5052883;28;20021;-58
2021/04/17 04:32:41;;;;;;;3.45;1.70;;;;;;;21.90;nan;103104.59;5052925;28;20028;-58
2021/04/17 04:35:07;;;;;;;2.75;1.48;;;;;;;21.87;nan;103104.88;5059233;28;20062;-58
2021/04/17 04:37:33;;;;;;;4.10;1.63;;;;;;;21.91;nan;103110.94;5072880;28;20111;-58
2021/04/17 04:39:58;;;;;;;3.22;1.50;;;;;;;21.80;nan;103111.91;5072931;28;20111;-58
2021/04/17 04:42:23;;;;;;;4.65;1.65;;;;;;;21.74;nan;103104.28;5072843;28;20025;-58
2021/04/17 04:44:49;;;;;;;4.18;1.70;;;;;;;21.78;nan;103113.06;5072791;28;20046;-58
2021/04/17 04:47:14;;;;;;;2.70;1.42;;;;;;;21.84;nan;103113.38;5072279;28;20097;-58
2021/04/17 04:49:39;;;;;;;3.50;1.65;;;;;;;21.82;nan;103114.50;5072798;28;20020;-59
2021/04/17 04:52:05;;;;;;;3.80;2.00;;;;;;;21.76;nan;103113.22;5072634;28;20062;-58
2021/04/17 04:54:30;;;;;;;3.70;1.50;;;;;;;21.81;nan;103112.78;5072306;28;20518;-58
2021/04/17 04:56:55;;;;;;;2.28;1.45;;;;;;;21.80;nan;103111.91;5072706;28;20070;-58
2021/04/17 04:59:21;;;;;;;2.30;1.20;;;;;;;21.74;nan;103115.22;5072481;28;20072;-58
2021/04/17 05:01:46;;;;;;;2.45;1.45;;;;;;;21.71;nan;103110.03;5072565;28;20035;-58
2021/04/17 05:04:11;;;;;;;2.63;1.67;;;;;;;21.74;nan;103114.34;5071674;28;20375;-58
2021/04/17 05:06:37;;;;;;;2.42;1.48;;;;;;;21.65;nan;103113.31;5071033;28;20024;-58
2021/04/17 05:09:03;;;;;;;3.22;1.42;;;;;;;21.66;nan;103104.09;5072598;28;20056;-58
2021/04/17 05:11:31;;;;;;;2.88;1.35;;;;;;;21.66;nan;103115.03;5072653;28;20108;-58
2021/04/17 05:13:57;;;;;;;3.47;1.35;;;;;;;21.68;nan;103113.06;5072524;28;20066;-58
2021/04/17 05:16:22;;;;;;;3.45;1.48;;;;;;;21.64;nan;103119.78;5072257;28;20029;-59
2021/04/17 05:18:47;;;;;;;3.97;1.90;;;;;;;21.66;nan;103123.25;5072378;28;20025;-58
2021/04/17 05:21:13;;;;;;;2.42;1.38;;;;;;;21.66;nan;103122.38;5072512;28;20025;-58
2021/04/17 05:23:38;;;;;;;3.75;1.80;;;;;;;21.68;nan;103121.28;5072358;28;20017;-58
2021/04/17 05:26:03;;;;;;;4.53;1.70;;;;;;;21.65;nan;103127.00;5072563;28;20078;-58
2021/04/17 05:28:28;;;;;;;4.03;1.67;;;;;;;21.74;nan;103123.44;5058961;28;20486;-58
2021/04/17 05:30:54;;;;;;;2.63;1.45;;;;;;;21.68;nan;103123.16;5052363;28;20021;-59
2021/04/17 05:33:19;;;;;;;3.53;1.50;;;;;;;21.72;nan;103122.72;5052090;28;20105;-59
2021/04/17 05:35:44;;;;;;;3.72;1.85;;;;;;;21.71;nan;103134.69;5053605;28;20032;-58
2021/04/17 05:38:09;;;;;;;3.38;1.55;;;;;;;21.72;nan;103132.81;5056013;28;20459;-59
2021/04/17 05:40:35;;;;;;;2.65;1.50;;;;;;;21.69;nan;103133.94;5056032;28;20028;-59
2021/04/17 05:43:00;;;;;;;2.78;1.40;;;;;;;21.71;nan;103134.69;5056178;28;20456;-58
2021/04/17 05:45:25;;;;;;;3.33;2.10;;;;;;;21.68;nan;103132.22;5056051;28;20025;-59
2021/04/17 05:47:51;;;;;;;2.85;1.42;;;;;;;21.64;nan;103136.22;5056236;28;20021;-59
2021/04/17 05:50:16;;;;;;;3.08;1.85;;;;;;;21.65;nan;103140.69;5055912;28;20051;-58
2021/04/17 05:52:41;;;;;;;3.45;1.80;;;;;;;21.66;nan;103131.47;5056008;28;20464;-58
2021/04/17 05:55:08;;;;;;;3.65;1.48;;;;;;;21.64;nan;103133.47;5055970;28;20088;-58
2021/04/17 05:57:33;;;;;;;3.17;1.73;;;;;;;21.62;nan;103127.28;5067800;28;20024;-58
2021/04/17 05:59:58;;;;;;;3.70;1.48;;;;;;;21.54;nan;103124.38;5075971;28;20349;-58
2021/04/17 06:02:24;;;;;;;3.15;1.60;;;;;;;21.53;nan;103130.84;5074178;28;20066;-58
2021/04/17 06:04:49;;;;;;;3.22;1.60;;;;;;;21.55;nan;103131.59;5075811;28;20024;-59
2021/04/17 06:07:15;;;;;;;3.92;1.70;;;;;;;21.54;nan;103124.38;5075601;28;20032;-58
2021/04/17 06:09:40;;;;;;;5.60;1.90;;;;;;;21.53;nan;103120.78;5075767;28;20024;-58
2021/04/17 06:12:05;;;;;;;2.53;1.58;;;;;;;21.58;nan;103114.88;5075617;28;20054;-58
2021/04/17 06:14:31;;;;;;;4.30;1.80;;;;;;;21.59;nan;103117.47;5075647;28;20346;-58
2021/04/17 06:16:56;;;;;;;2.58;1.48;;;;;;;21.57;nan;103119.50;5075651;28;20137;-59
2021/04/17 06:19:21;;;;;;;5.28;1.85;;;;;;;21.53;nan;103114.44;5075326;28;20032;-58
2021/04/17 06:21:47;;;;;;;3.92;1.83;;;;;;;21.59;nan;103116.63;5074225;28;20069;-58
2021/04/17 06:24:12;;;;;;;4.28;1.83;;;;;;;21.57;nan;103118.63;5075302;28;20021;-58
2021/04/17 06:26:38;;;;;;;4.18;1.55;;;;;;;21.61;nan;103120.06;5075334;28;20060;-58
2021/04/17 06:29:04;;;;;;;4.97;1.45;;;;;;;21.49;nan;103122.03;5059075;28;20025;-58
2021/04/17 06:31:29;;;;;;;3.50;1.90;;;;;;;21.52;nan;103116.31;5055248;28;20020;-58
2021/04/17 06:33:54;;;;;;;3.17;1.42;;;;;;;21.57;nan;103113.16;5055295;28;20047;-58
2021/04/17 06:36:19;;;;;;;2.53;1.40;;;;;;;21.57;nan;103116.75;5055037;28;20028;-58
2021/04/17 06:38:45;;;;;;;4.50;2.35;;;;;;;21.54;nan;103118.91;5055105;28;20045;-58
2021/04/17 06:41:10;;;;;;;2.83;1.50;;;;;;;21.51;nan;103108.25;5054966;28;20376;-58
2021/04/17 06:43:38;;;;;;;4.60;2.13;;;;;;;21.55;nan;103098.75;5054989;28;20116;-58
2021/04/17 06:46:04;;;;;;;3.25;1.63;;;;;;;21.51;nan;103102.75;5054986;28;20029;-58
2021/04/17 06:48:31;;;;;;;4.43;2.33;;;;;;;21.54;nan;103102.47;5053650;28;20039;-58
2021/04/17 06:50:57;;;;;;;4.95;1.73;;;;;;;21.49;nan;103094.66;5055020;28;20128;-58
2021/04/17 06:53:23;;;;;;;3.20;1.55;;;;;;;21.52;nan;103099.03;5053488;28;20511;-58
2021/04/17 06:55:50;;;;;;;4.20;1.83;;;;;;;21.54;nan;103097.88;5054826;28;20044;-59
2021/04/17 06:58:18;;;;;;;3.10;1.58;;;;;;;21.54;nan;103097.00;5074022;28;20020;-58
2021/04/17 07:00:44;;;;;;;4.72;1.67;;;;;;;21.47;nan;103102.16;5074686;28;20387;-58
2021/04/17 07:03:09;;;;;;;3.75;1.77;;;;;;;21.60;nan;103101.91;5073242;28;20017;-59
2021/04/17 07:05:34;;;;;;;4.43;1.90;;;;;;;21.47;nan;103104.88;5074677;28;20906;-58
2021/04/17 07:08:01;;;;;;;3.50;1.45;;;;;;;21.48;nan;103103.00;5074353;28;20033;-58
2021/04/17 07:10:27;;;;;;;5.47;2.17;;;;;;;21.54;nan;103103.34;5074383;28;20031;-58
2021/04/17 07:13:10;;;;;;;3.88;1.90;;;;;;;21.50;nan;103104.63;5074624;28;20021;-58
2021/04/17 07:15:36;;;;;;;4.72;1.70;;;;;;;21.48;nan;103105.75;5074515;28;20029;-58
2021/04/17 07:18:31;;;;;;;3.53;1.70;;;;;;;21.55;nan;103115.16;5074520;28;20066;-59
2021/04/17 07:21:19;;;;;;;3.60;1.90;;;;;;;21.63;nan;103107.09;5074465;28;20028;-58
2021/04/17 07:23:46;;;;;;;4.07;2.00;;;;;;;21.53;nan;103104.34;5068526;28;20037;-58
2021/04/17 07:26:23;;;;;;;4.93;1.40;;;;;;;21.61;nan;103104.50;5073765;28;20172;-58
2021/04/17 07:28:54;;;;;;;4.82;1.52;;;;;;;21.64;nan;103106.09;5059766;28;20037;-58
2021/04/17 07:31:21;;;;;;;4.47;2.05;;;;;;;21.60;nan;103107.41;5054068;28;20111;-59
2021/04/17 07:33:46;;;;;;;4.03;1.80;;;;;;;21.66;nan;103112.28;5054328;28;20063;-58
2021/04/17 07:36:12;;;;;;;3.58;1.55;;;;;;;21.61;nan;103109.13;5054021;28;20476;-58
2021/04/17 07:38:38;;;;;;;3.35;1.65;;;;;;;21.61;nan;103111.84;5057700;28;20032;-59
2021/04/17 07:41:15;;;;;;;2.85;1.63;;;;;;;21.67;nan;103121.38;5073992;28;20063;-59
2021/04/17 07:44:03;;;;;;;3.65;1.60;;;;;;;21.54;nan;103124.38;5053974;28;20047;-59
2021/04/17 07:46:41;;;;;;;5.43;1.80;;;;;;;21.58;nan;103123.97;5053646;28;20498;-59
2021/04/17 07:49:18;;;;;;;3.17;1.50;;;;;;;21.58;nan;103125.81;5053839;28;20032;-58
2021/04/17 07:52:11;;;;;;;4.32;1.95;;;;;;;21.52;nan;103126.38;5053871;28;20067;-59
2021/04/17 07:55:00;;;;;;;3.75;1.70;;;;;;;21.61;nan;103131.88;5063568;23;20059;-58
2021/04/17 07:57:55;;;;;;;2.88;1.83;;;;;;;21.54;nan;103127.13;5072605;28;20044;-58
2021/04/17 08:00:22;;;;;;;3.38;1.55;;;;;;;21.60;nan;103140.25;5008225;28;20046;-58
2021/04/17 08:02:51;;;;;;;4.82;1.88;;;;;;;21.54;nan;103140.81;4991791;28;20391;-58
2021/04/17 08:05:17;;;;;;;2.65;1.83;;;;;;;21.60;nan;103137.50;4991688;28;20344;-58
2021/04/17 08:07:43;;;;;;;3.00;1.42;;;;;;;21.48;nan;103138.59;4991829;28;20060;-58
2021/04/17 08:10:10;;;;;;;2.40;1.50;;;;;;;21.58;nan;103142.25;5006903;28;20112;-58
2021/04/17 08:12:37;;;;;;;3.75;1.90;;;;;;;21.49;nan;103143.94;5011091;28;20584;-59
2021/04/17 08:15:13;;;;;;;5.20;2.10;;;;;;;21.55;nan;103148.00;5011375;28;20036;-58
2021/04/17 08:17:40;;;;;;;5.00;2.00;;;;;;;21.52;nan;103145.56;5011299;28;20064;-58
2021/04/17 08:20:07;;;;;;;3.17;1.77;;;;;;;21.57;nan;103156.94;5011126;28;20200;-59
2021/04/17 08:22:33;;;;;;;3.78;1.65;;;;;;;21.53;nan;103150.03;5010934;28;20134;-59
2021/04/17 08:24:58;;;;;;;3.40;1.73;;;;;;;21.49;nan;103145.81;5011240;28;20038;-58
2021/04/17 08:27:29;;;;;;;4.45;2.03;;;;;;;21.54;nan;103149.00;5008231;28;20029;-58
2021/04/17 08:29:55;;;;;;;2.95;1.58;;;;;;;21.49;nan;103141.19;4991554;28;20039;-58
2021/04/17 08:32:24;;;;;;;4.20;1.98;;;;;;;21.50;nan;103144.78;4991314;28;20030;-58
2021/04/17 08:35:17;;;;;;;6.68;2.38;;;;;;;21.47;nan;103147.81;4991390;28;20061;-59
2021/04/17 08:37:55;;;;;;;4.05;1.63;;;;;;;21.46;nan;103154.28;5038468;28;20037;-58
2021/04/17 08:40:32;;;;;;;4.97;1.70;;;;;;;21.50;nan;103161.22;5071861;28;20032;-59
2021/04/17 08:42:58;;;;;;;3.28;1.70;;;;;;;21.58;nan;103158.69;5072851;28;20060;-59
2021/04/17 08:45:23;;;;;;;2.95;1.50;;;;;;;21.54;nan;103163.56;5071349;28;20020;-58
2021/04/17 08:47:49;;;;;;;3.72;1.70;;;;;;;21.48;nan;103174.19;5060065;28;20419;-58
2021/04/17 08:50:20;;;;;;;3.58;1.80;;;;;;;21.51;nan;103162.97;5052878;28;20025;-58
2021/04/17 08:52:45;;;;;;;5.60;1.60;;;;;;;21.43;nan;103171.00;5052655;28;20036;-58
2021/04/17 08:55:16;;;;;;;3.75;1.90;;;;;;;21.44;nan;103172.72;5052345;28;20041;-58
2021/04/17 08:57:41;;;;;;;6.30;2.25;;;;;;;21.43;nan;103176.47;5052791;28;20033;-58
2021/04/17 09:00:07;;;;;;;2.63;1.42;;;;;;;21.52;nan;103159.25;5052520;28;20021;-59
2021/04/17 09:02:46;;;;;;;3.80;1.75;;;;;;;21.49;nan;103164.97;5052067;28;20025;-59
2021/04/17 09:05:14;;;;;;;4.07;1.88;;;;;;;21.45;nan;103169.84;5052191;28;20091;-58
2021/04/17 09:07:44;;;;;;;3.88;1.70;;;;;;;21.38;nan;103173.28;5052490;28;20104;-58
2021/04/17 09:10:28;;;;;;;3.55;1.88;;;;;;;21.48;nan;103176.91;5052568;28;20035;-58
2021/04/17 09:13:08;;;;;;;4.82;2.20;;;;;;;21.51;nan;103171.19;5052153;28;20035;-59
2021/04/17 09:15:52;;;;;;;4.18;1.80;;;;;;;21.58;nan;103175.09;5052753;28;20024;-58
2021/04/17 09:18:47;;;;;;;3.75;1.88;;;;;;;21.58;nan;103178.72;5052220;28;20025;-58
2021/04/17 09:21:15;;;;;;;4.22;1.80;;;;;;;21.55;nan;103176.25;5013451;28;20423;-58
2021/04/17 09:23:46;;;;;;;5.75;2.17;;;;;;;21.61;nan;103174.81;5030135;28;20486;-59
2021/04/17 09:26:30;;;;;;;4.25;1.85;;;;;;;21.60;nan;103173.09;5029719;28;20038;-58
2021/04/17 09:28:57;;;;;;;4.00;2.07;;;;;;;21.60;nan;103173.09;5030114;28;20040;-58
2021/04/17 09:31:23;;;;;;;3.78;1.75;;;;;;;21.58;nan;103175.09;5029505;28;20543;-58
2021/04/17 09:34:01;;;;;;;3.35;1.83;;;;;;;21.53;nan;103166.44;5030123;28;20124;-58
2021/04/17 09:36:26;;;;;;;3.55;1.80;;;;;;;21.59;nan;103168.63;5029465;28;20480;-58
2021/04/17 09:38:51;;;;;;;4.20;2.03;;;;;;;21.57;nan;103163.28;5029614;28;20044;-58
2021/04/17 09:41:17;;;;;;;3.50;1.75;;;;;;;21.56;nan;103177.13;5029702;28;20037;-58
2021/04/17 09:43:42;;;;;;;3.72;1.95;;;;;;;21.54;nan;103173.66;5029866;28;20060;-58
2021/04/17 09:46:18;;;;;;;2.90;1.77;;;;;;;21.57;nan;103178.84;5029767;28;20373;-59
2021/04/17 09:48:44;;;;;;;3.33;1.80;;;;;;;21.53;nan;103172.78;5029794;28;20484;-58
2021/04/17 09:51:21;;;;;;;5.30;2.28;;;;;;;21.47;nan;103177.91;5029555;28;20037;-58
2021/04/17 09:53:47;;;;;;;4.35;1.88;;;;;;;21.53;nan;103171.91;5029951;28;20546;-59
2021/04/17 09:56:24;;;;;;;3.40;1.95;;;;;;;21.46;nan;103176.19;5029410;28;20428;-59
2021/04/17 09:58:50;;;;;;;2.97;1.75;;;;;;;21.49;nan;103170.44;5032186;28;20032;-59
2021/04/17 10:01:17;;;;;;;3.38;1.80;;;;;;;21.58;nan;103175.09;5031865;28;20029;-58
2021/04/17 10:03:45;;;;;;;4.03;1.60;;;;;;;21.61;nan;103169.34;5039512;28;20472;-58
2021/04/17 10:06:24;;;;;;;3.97;2.10;;;;;;;21.56;nan;103174.38;5051748;28;20036;-59
2021/04/17 10:08:50;;;;;;;4.50;1.88;;;;;;;21.57;nan;103167.91;5052104;28;20108;-59
2021/04/17 10:11:27;;;;;;;4.22;1.65;;;;;;;21.59;nan;103168.63;5051753;28;20103;-58
2021/04/17 10:13:53;;;;;;;3.15;1.63;;;;;;;21.53;nan;103169.19;5050710;28;20559;-59
2021/04/17 10:16:33;;;;;;;3.50;1.38;;;;;;;21.63;nan;103165.47;5051659;28;20380;-58
2021/04/17 10:19:01;;;;;;;4.22;2.00;;;;;;;21.64;nan;103158.13;5050612;28;20029;-58
2021/04/17 10:21:31;;;;;;;2.53;1.27;;;;;;;21.59;nan;103165.88;5050724;28;20530;-58
2021/04/17 10:24:15;;;;;;;3.38;1.83;;;;;;;21.63;nan;103159.13;5055034;28;20056;-58
2021/04/17 10:26:51;;;;;;;3.45;1.65;;;;;;;21.64;nan;103158.13;5055342;28;20476;-59
2021/04/17 10:29:16;;;;;;;4.45;2.17;;;;;;;21.61;nan;103153.78;5035727;28;20416;-58
2021/04/17 10:31:42;;;;;;;4.18;2.00;;;;;;;21.63;nan;103148.16;5035504;28;20029;-58
2021/04/17 10:34:07;;;;;;;5.03;1.92;;;;;;;21.62;nan;103165.59;5035221;28;20100;-59
2021/04/17 10:36:33;;;;;;;5.32;1.67;;;;;;;21.69;nan;103155.84;5035124;28;20060;-58
2021/04/17 10:39:09;;;;;;;4.03;2.28;;;;;;;21.66;nan;103158.84;5048446;28;20099;-58
2021/04/17 10:41:35;;;;;;;3.08;1.70;;;;;;;21.65;nan;103151.63;5055429;28;20047;-58
2021/04/17 10:44:08;;;;;;;3.22;1.98;;;;;;;21.67;nan;103149.66;5055059;28;20036;-58
2021/04/17 10:46:47;;;;;;;5.13;2.40;;;;;;;21.65;nan;103156.25;5054860;28;20495;-58
2021/04/17 10:49:32;;;;;;;4.80;1.90;;;;;;;21.62;nan;103157.38;5054915;28;20036;-58
2021/04/17 10:51:59;;;;;;;4.93;2.20;;;;;;;21.61;nan;103150.19;5055062;28;20044;-58
2021/04/17 10:54:25;;;;;;;3.35;1.83;;;;;;;21.56;nan;103155.22;5054536;28;20021;-58
2021/04/17 10:57:06;;;;;;;3.60;1.83;;;;;;;21.61;nan;103153.78;5054847;28;20016;-58
2021/04/17 10:59:55;;;;;;;3.72;1.73;;;;;;;21.68;nan;103147.78;5054846;28;20036;-58
2021/04/17 11:02:39;;;;;;;5.10;2.00;;;;;;;21.56;nan;103150.59;5054529;28;20535;-58
2021/04/17 11:05:06;;;;;;;3.90;2.00;;;;;;;21.62;nan;103140.97;5054670;28;20041;-58
2021/04/17 11:07:36;;;;;;;4.10;2.35;;;;;;;21.55;nan;103142.53;5054593;28;20052;-58
2021/04/17 11:10:06;;;;;;;2.58;1.52;;;;;;;21.61;nan;103142.84;5074637;28;20021;-58
2021/04/17 11:12:34;;;;;;;5.47;2.42;;;;;;;21.73;nan;103140.88;5074489;28;20024;-58
2021/04/17 11:15:35;;;;;;;3.97;2.05;;;;;;;21.66;nan;103138.81;5074564;28;20051;-58
2021/04/17 11:18:10;;;;;;;3.95;1.73;;;;;;;21.77;nan;103141.47;5032122;28;20029;-59
2021/04/17 11:20:58;;;;;;;4.38;1.85;;;;;;;21.76;nan;103146.06;5031900;28;20032;-58
2021/04/17 11:23:33;;;;;;;4.07;2.03;;;;;;;21.78;nan;103146.78;5031878;28;20029;-58
2021/04/17 11:26:00;;;;;;;3.92;1.80;;;;;;;21.75;nan;103138.00;5031989;28;20037;-59
2021/04/17 11:28:26;;;;;;;4.47;1.85;;;;;;;21.75;nan;103143.47;5020801;28;20600;-58
2021/04/17 11:30:53;;;;;;;4.93;2.00;;;;;;;21.82;nan;103137.28;5012139;28;20072;-58
2021/04/17 11:33:18;;;;;;;5.57;2.00;;;;;;;21.74;nan;103153.56;5011903;28;20034;-58
2021/04/17 11:35:43;;;;;;;2.50;1.80;;;;;;;21.74;nan;103145.34;5011625;28;20028;-58
2021/04/17 11:38:09;;;;;;;4.22;1.90;;;;;;;21.76;nan;103132.38;5019109;28;20036;-58
2021/04/17 11:40:34;;;;;;;3.95;1.90;;;;;;;21.71;nan;103137.41;5031588;28;20350;-58
2021/04/17 11:42:59;;;;;;;3.42;1.70;;;;;;;21.75;nan;103144.34;5031676;28;20141;-58
2021/04/17 11:45:25;;;;;;;5.00;2.00;;;;;;;21.74;nan;103142.59;5031451;28;20049;-58
2021/04/17 11:47:50;;;;;;;5.75;1.90;;;;;;;21.69;nan;103136.69;5031703;28;20025;-58